createdAt,value
2019-03-24T00:01:41.310Z,8.80
2019-03-24T00:04:10.697Z,8.80
2019-03-24T00:06:41.369Z,8.80
2019-03-24T00:09:12.223Z,8.90
2019-03-24T00:11:43.001Z,8.80
2019-03-24T00:14:13.838Z,8.70
2019-03-24T00:16:44.573Z,8.70
2019-03-24T00:19:15.500Z,8.60
2019-03-24T00:21:46.184Z,8.60
2019-03-24T00:24:17.012Z,8.50
2019-03-24T00:26:47.847Z,8.60
2019-03-24T00:29:18.754Z,8.40
2019-03-24T00:31:49.556Z,8.40
2019-03-24T00:34:20.484Z,8.50
2019-03-24T00:36:51.365Z,8.40
2019-03-24T00:39:23.226Z,8.40
2019-03-24T00:41:54.061Z,8.30
2019-03-24T00:44:24.917Z,8.30
2019-03-24T00:46:55.572Z,8.20
2019-03-24T00:49:26.552Z,8.20
2019-03-24T00:51:57.409Z,8.20
2019-03-24T00:54:28.143Z,8.30
2019-03-24T00:56:59.166Z,8.30
2019-03-24T00:59:30.150Z,8.30
2019-03-24T01:02:01.059Z,8.30
2019-03-24T01:04:32.045Z,8.30
2019-03-24T01:07:02.918Z,8.20
2019-03-24T01:09:33.835Z,8.20
2019-03-24T01:12:04.921Z,8.20
2019-03-24T01:14:35.587Z,8.20
2019-03-24T01:17:06.543Z,8.10
2019-03-24T01:19:37.479Z,8.00
2019-03-24T01:22:08.467Z,8.00
2019-03-24T01:24:39.146Z,8.10
2019-03-24T01:27:09.970Z,8.00
2019-03-24T01:29:40.775Z,8.00
2019-03-24T01:32:11.869Z,8.00
2019-03-24T01:34:42.649Z,8.00
2019-03-24T01:37:13.411Z,8.00
2019-03-24T01:39:44.161Z,7.90
2019-03-24T01:42:14.911Z,7.80
2019-03-24T01:44:45.753Z,7.90
2019-03-24T01:47:16.524Z,7.90
2019-03-24T01:49:47.257Z,7.90
2019-03-24T01:52:17.922Z,7.80
2019-03-24T01:54:48.654Z,7.60
2019-03-24T01:57:19.459Z,7.60
2019-03-24T01:59:50.208Z,7.60
2019-03-24T02:02:21.462Z,7.70
2019-03-24T02:04:52.277Z,7.70
2019-03-24T02:07:23.055Z,7.80
2019-03-24T02:09:53.938Z,7.90
2019-03-24T02:12:24.876Z,7.80
2019-03-24T02:14:55.552Z,7.70
2019-03-24T02:17:26.357Z,7.90
2019-03-24T02:19:57.123Z,8.10
2019-03-24T02:22:28.028Z,8.10
2019-03-24T02:24:58.954Z,7.90
2019-03-24T02:27:30.827Z,7.80
2019-03-24T02:30:01.521Z,7.70
2019-03-24T02:32:32.251Z,7.70
2019-03-24T02:35:03.510Z,7.60
2019-03-24T02:37:34.311Z,7.50
2019-03-24T02:40:04.912Z,7.40
2019-03-24T02:42:35.669Z,7.30
2019-03-24T02:45:06.833Z,7.20
2019-03-24T02:47:37.713Z,7.00
2019-03-24T02:50:10.232Z,7.00
2019-03-24T02:52:41.139Z,7.00
2019-03-24T02:55:12.422Z,7.00
2019-03-24T02:57:44.962Z,7.00
2019-03-24T03:00:16.343Z,6.90
2019-03-24T03:02:47.159Z,6.80
2019-03-24T03:05:18.171Z,6.70
2019-03-24T03:07:49.055Z,6.80
2019-03-24T03:10:20.372Z,6.90
2019-03-24T03:12:51.165Z,6.80
2019-03-24T03:15:21.875Z,6.80
2019-03-24T03:17:52.784Z,6.70
2019-03-24T03:20:23.604Z,6.70
2019-03-24T03:22:54.289Z,6.70
2019-03-24T03:25:25.028Z,6.70
2019-03-24T03:27:55.907Z,6.70
2019-03-24T03:30:26.593Z,6.70
2019-03-24T03:32:57.349Z,6.70
2019-03-24T03:35:28.121Z,6.60
2019-03-24T03:38:00.802Z,6.70
2019-03-24T03:40:50.073Z,6.70
2019-03-24T03:43:20.905Z,6.70
2019-03-24T03:45:51.626Z,6.70
2019-03-24T03:48:23.861Z,6.70
2019-03-24T03:50:54.836Z,6.80
2019-03-24T03:53:25.528Z,6.80
2019-03-24T03:55:56.260Z,6.70
2019-03-24T03:58:27.153Z,6.60
2019-03-24T04:00:58.090Z,6.30
2019-03-24T04:03:28.825Z,6.20
2019-03-24T04:05:59.613Z,6.20
2019-03-24T04:08:31.377Z,6.30
2019-03-24T04:11:02.262Z,6.40
2019-03-24T04:13:32.931Z,6.50
2019-03-24T04:16:03.814Z,6.50
2019-03-24T04:18:34.671Z,6.50
2019-03-24T04:21:05.587Z,6.50
2019-03-24T04:23:36.288Z,6.40
2019-03-24T04:26:07.062Z,6.30
2019-03-24T04:28:37.908Z,6.20
2019-03-24T04:31:08.740Z,6.20
2019-03-24T04:33:39.784Z,6.20
2019-03-24T04:36:10.759Z,6.30
2019-03-24T04:38:42.772Z,6.20
2019-03-24T04:41:14.324Z,6.20
2019-03-24T04:43:45.236Z,6.20
2019-03-24T04:46:15.996Z,6.10
2019-03-24T04:48:46.955Z,6.10
2019-03-24T04:51:17.643Z,6.20
2019-03-24T04:53:48.375Z,6.20
2019-03-24T04:56:20.926Z,6.10
2019-03-24T04:58:54.905Z,6.10
2019-03-24T05:01:25.728Z,6.10
2019-03-24T05:03:56.475Z,6.10
2019-03-24T05:06:27.325Z,6.00
2019-03-24T05:08:59.410Z,6.00
2019-03-24T05:11:30.212Z,6.00
2019-03-24T05:14:01.748Z,6.00
2019-03-24T05:16:32.580Z,6.10
2019-03-24T05:19:03.497Z,5.90
2019-03-24T05:21:34.367Z,5.80
2019-03-24T05:24:05.068Z,5.90
2019-03-24T05:26:35.791Z,5.90
2019-03-24T05:29:06.719Z,5.90
2019-03-24T05:31:37.724Z,6.00
2019-03-24T05:34:08.402Z,6.00
2019-03-24T05:36:39.180Z,6.00
2019-03-24T05:39:11.088Z,5.90
2019-03-24T05:41:41.847Z,5.90
2019-03-24T05:44:12.867Z,6.00
2019-03-24T05:46:43.769Z,5.80
2019-03-24T05:49:14.455Z,5.80
2019-03-24T05:51:45.091Z,5.90
2019-03-24T05:54:15.808Z,6.00
2019-03-24T05:56:46.809Z,6.20
2019-03-24T05:59:18.722Z,6.30
2019-03-24T06:01:49.606Z,6.40
2019-03-24T06:04:20.388Z,6.60
2019-03-24T06:06:51.106Z,6.60
2019-03-24T06:09:21.856Z,6.50
2019-03-24T06:11:52.747Z,6.40
2019-03-24T06:14:23.478Z,6.30
2019-03-24T06:16:54.380Z,6.30
2019-03-24T06:19:25.254Z,6.20
2019-03-24T06:21:56.037Z,6.40
2019-03-24T06:24:26.830Z,6.50
2019-03-24T06:26:59.031Z,6.60
2019-03-24T06:29:29.895Z,6.80
2019-03-24T06:32:00.781Z,6.80
2019-03-24T06:34:33.414Z,6.90
2019-03-24T06:37:04.385Z,6.90
2019-03-24T06:39:35.223Z,7.10
2019-03-24T06:42:06.014Z,7.20
2019-03-24T06:44:37.917Z,7.10
2019-03-24T06:47:08.711Z,7.20
2019-03-24T06:49:39.336Z,7.20
2019-03-24T06:52:10.271Z,7.30
2019-03-24T06:54:41.047Z,7.50
2019-03-24T06:57:11.796Z,7.70
2019-03-24T06:59:42.612Z,7.70
2019-03-24T07:02:13.363Z,7.80
2019-03-24T07:04:44.027Z,7.80
2019-03-24T07:07:14.788Z,7.90
2019-03-24T07:09:45.804Z,8.00
2019-03-24T07:12:16.438Z,8.10
2019-03-24T07:14:47.099Z,8.30
2019-03-24T07:17:18.697Z,8.30
2019-03-24T07:19:49.378Z,8.40
2019-03-24T07:22:20.547Z,8.40
2019-03-24T07:24:51.384Z,8.50
2019-03-24T07:27:22.195Z,8.50
2019-03-24T07:29:52.979Z,8.70
2019-03-24T07:32:23.866Z,8.90
2019-03-24T07:34:54.580Z,9.00
2019-03-24T07:37:25.482Z,9.10
2019-03-24T07:39:56.173Z,9.10
2019-03-24T07:42:27.055Z,9.10
2019-03-24T07:44:58.031Z,9.30
2019-03-24T07:47:28.863Z,9.50
2019-03-24T07:49:59.699Z,9.50
2019-03-24T07:52:30.705Z,9.60
2019-03-24T07:55:01.420Z,9.90
2019-03-24T07:57:32.130Z,10.00
2019-03-24T08:00:02.987Z,10.10
2019-03-24T08:02:33.701Z,10.20
2019-03-24T08:05:04.659Z,10.30
2019-03-24T08:07:35.525Z,10.40
2019-03-24T08:10:06.872Z,10.40
2019-03-24T08:12:37.761Z,10.50
2019-03-24T08:15:08.908Z,10.30
2019-03-24T08:17:39.970Z,10.30
2019-03-24T08:20:12.327Z,10.60
2019-03-24T08:22:43.259Z,10.70
2019-03-24T08:25:14.138Z,10.80
2019-03-24T08:27:45.192Z,10.90
2019-03-24T08:30:19.326Z,10.90
2019-03-24T08:32:50.108Z,11.00
2019-03-24T08:35:20.719Z,11.10
2019-03-24T08:37:51.657Z,11.20
2019-03-24T08:40:22.435Z,11.30
2019-03-24T08:42:53.169Z,11.50
2019-03-24T08:45:30.849Z,11.50
2019-03-24T08:48:01.661Z,11.50
2019-03-24T08:50:32.538Z,11.50
2019-03-24T08:53:03.388Z,11.60
2019-03-24T08:55:34.086Z,11.70
2019-03-24T08:58:04.944Z,11.80
2019-03-24T09:00:35.628Z,11.80
2019-03-24T09:03:06.478Z,11.70
2019-03-24T09:05:37.336Z,12.10
2019-03-24T09:08:08.291Z,12.40
2019-03-24T09:10:39.025Z,12.40
2019-03-24T09:13:09.758Z,12.60
2019-03-24T09:15:40.368Z,12.60
2019-03-24T09:18:11.451Z,12.50
2019-03-24T09:20:42.329Z,12.50
2019-03-24T09:23:19.022Z,12.90
2019-03-24T09:25:49.678Z,13.20
2019-03-24T09:28:20.479Z,12.90
2019-03-24T09:30:51.323Z,12.80
2019-03-24T09:33:22.035Z,13.20
2019-03-24T09:35:52.766Z,13.40
2019-03-24T09:38:23.504Z,13.40
2019-03-24T09:40:54.319Z,13.20
2019-03-24T09:43:25.050Z,13.30
2019-03-24T09:45:56.303Z,13.50
2019-03-24T09:48:31.566Z,13.70
2019-03-24T09:51:01.990Z,13.70
2019-03-24T09:53:32.391Z,14.00
2019-03-24T09:56:02.790Z,14.30
2019-03-24T09:58:33.186Z,14.30
2019-03-24T10:01:03.567Z,14.20
2019-03-24T10:03:33.968Z,14.40
2019-03-24T10:06:04.456Z,14.90
2019-03-24T10:08:34.917Z,14.70
2019-03-24T10:11:05.704Z,14.60
2019-03-24T10:13:36.488Z,14.70
2019-03-24T10:16:06.890Z,14.60
2019-03-24T10:18:37.381Z,15.00
2019-03-24T10:21:08.381Z,14.90
2019-03-24T10:23:38.762Z,15.30
2019-03-24T10:26:09.134Z,15.40
2019-03-24T10:28:39.539Z,15.30
2019-03-24T10:31:09.919Z,15.20
2019-03-24T10:33:40.311Z,15.40
2019-03-24T10:36:10.714Z,15.40
2019-03-24T10:38:41.272Z,15.40
2019-03-24T10:41:11.800Z,15.40
2019-03-24T10:43:42.568Z,15.60
2019-03-24T10:46:13.164Z,16.10
2019-03-24T10:48:44.407Z,16.40
2019-03-24T10:51:14.813Z,16.10
2019-03-24T10:53:45.372Z,16.70
2019-03-24T10:56:15.767Z,17.10
2019-03-24T10:58:46.198Z,16.80
2019-03-24T11:01:17.142Z,16.90
2019-03-24T11:03:47.889Z,16.90
2019-03-24T11:06:18.785Z,17.60
2019-03-24T11:08:49.768Z,18.10
2019-03-24T11:11:20.654Z,18.00
2019-03-24T11:13:51.442Z,18.10
2019-03-24T11:16:22.155Z,18.30
2019-03-24T11:18:53.175Z,18.70
2019-03-24T11:21:24.152Z,18.90
2019-03-24T11:23:55.092Z,18.90
2019-03-24T11:26:25.674Z,19.20
2019-03-24T11:28:56.560Z,19.20
2019-03-24T11:31:27.191Z,19.20
2019-03-24T11:33:58.091Z,19.30
2019-03-24T11:36:28.844Z,19.10
2019-03-24T11:38:59.662Z,19.40
2019-03-24T11:41:30.403Z,19.50
2019-03-24T11:44:01.068Z,19.70
2019-03-24T11:46:32.062Z,20.20
2019-03-24T11:49:03.047Z,21.00
2019-03-24T11:51:33.882Z,21.80
2019-03-24T11:54:04.263Z,23.00
2019-03-24T11:56:34.687Z,23.50
2019-03-24T11:59:05.164Z,23.20
2019-03-24T12:01:38.491Z,22.90
2019-03-24T12:04:07.609Z,23.50
2019-03-24T12:06:38.016Z,23.60
2019-03-24T12:09:09.159Z,24.00
2019-03-24T12:11:39.554Z,24.30
2019-03-24T12:14:09.936Z,24.20
2019-03-24T12:16:40.316Z,23.90
2019-03-24T12:19:10.911Z,24.20
2019-03-24T12:21:41.394Z,25.00
2019-03-24T12:24:11.924Z,24.70
2019-03-24T12:26:42.369Z,24.20
2019-03-24T12:29:12.927Z,24.80
2019-03-24T12:31:43.410Z,25.00
2019-03-24T12:34:13.927Z,24.80
2019-03-24T12:36:44.675Z,24.30
2019-03-24T12:39:15.199Z,24.40
2019-03-24T12:41:45.739Z,24.50
2019-03-24T12:44:16.227Z,24.90
2019-03-24T12:46:46.685Z,25.00
2019-03-24T12:49:17.283Z,25.30
2019-03-24T12:51:48.822Z,24.80
2019-03-24T12:54:19.296Z,25.30
2019-03-24T12:56:49.871Z,25.50
2019-03-24T12:59:21.642Z,25.60
2019-03-24T13:01:52.971Z,25.20
2019-03-24T13:04:23.475Z,26.00
2019-03-24T13:06:53.856Z,26.00
2019-03-24T13:09:24.298Z,24.60
2019-03-24T13:11:54.731Z,24.10
2019-03-24T13:14:25.135Z,24.50
2019-03-24T13:16:55.515Z,24.30
2019-03-24T13:19:32.634Z,24.60
2019-03-24T13:22:04.346Z,23.90
2019-03-24T13:24:37.938Z,23.90
2019-03-24T13:27:10.288Z,23.70
2019-03-24T13:29:43.366Z,23.50
2019-03-24T13:32:18.127Z,23.80
2019-03-24T13:34:50.006Z,24.00
2019-03-24T13:37:24.831Z,23.90
2019-03-24T13:39:55.392Z,24.50
2019-03-24T13:42:25.854Z,24.20
2019-03-24T13:44:56.305Z,25.00
2019-03-24T13:47:26.975Z,24.70
2019-03-24T13:49:57.512Z,24.20
2019-03-24T13:52:27.975Z,23.90
2019-03-24T13:54:58.505Z,23.90
2019-03-24T13:57:29.128Z,23.90
2019-03-24T13:59:59.663Z,24.20
2019-03-24T14:02:30.223Z,24.60
2019-03-24T14:05:00.824Z,25.00
2019-03-24T14:07:31.419Z,24.60
2019-03-24T14:10:01.946Z,24.60
2019-03-24T14:12:32.534Z,24.70
2019-03-24T14:15:03.127Z,24.20
2019-03-24T14:17:33.770Z,24.60
2019-03-24T14:20:04.500Z,24.90
2019-03-24T14:22:34.901Z,25.50
2019-03-24T14:25:05.732Z,24.60
2019-03-24T14:27:37.123Z,24.80
2019-03-24T14:30:08.231Z,26.00
2019-03-24T14:32:38.800Z,26.50
2019-03-24T14:35:09.633Z,25.70
2019-03-24T14:37:41.122Z,26.80
2019-03-24T14:40:13.144Z,25.80
2019-03-24T14:42:43.591Z,25.80
2019-03-24T14:45:14.310Z,25.80
2019-03-24T14:47:44.823Z,25.70
2019-03-24T14:50:15.965Z,25.90
2019-03-24T14:52:46.407Z,26.20
2019-03-24T14:55:16.856Z,25.20
2019-03-24T14:57:47.551Z,24.30
2019-03-24T15:00:21.767Z,23.10
2019-03-24T15:02:52.455Z,22.90
2019-03-24T15:05:23.166Z,22.60
2019-03-24T15:07:53.988Z,21.90
2019-03-24T15:10:24.455Z,21.90
2019-03-24T15:12:54.915Z,22.30
2019-03-24T15:15:25.350Z,22.80
2019-03-24T15:17:55.882Z,23.10
2019-03-24T15:20:26.384Z,23.70
2019-03-24T15:22:56.934Z,24.40
2019-03-24T15:25:27.487Z,24.60
2019-03-24T15:27:59.120Z,23.10
2019-03-24T15:30:29.583Z,21.70
2019-03-24T15:32:59.975Z,21.30
2019-03-24T15:35:30.404Z,21.00
2019-03-24T15:38:08.163Z,21.00
2019-03-24T15:40:33.077Z,20.60
2019-03-24T15:43:03.484Z,20.20
2019-03-24T15:45:33.887Z,20.10
2019-03-24T15:48:04.584Z,19.80
2019-03-24T15:50:35.091Z,19.50
2019-03-24T15:53:05.497Z,19.30
2019-03-24T15:55:35.899Z,19.00
2019-03-24T15:58:06.496Z,18.70
2019-03-24T16:00:47.817Z,18.70
2019-03-24T16:03:18.799Z,18.60
2019-03-24T16:05:49.972Z,18.30
2019-03-24T16:08:20.593Z,18.30
2019-03-24T16:10:50.983Z,18.10
2019-03-24T16:13:21.391Z,18.00
2019-03-24T16:15:51.880Z,17.80
2019-03-24T16:18:22.274Z,17.60
2019-03-24T16:20:52.685Z,17.50
2019-03-24T16:23:23.082Z,17.50
2019-03-24T16:25:55.674Z,17.40
2019-03-24T16:28:25.904Z,17.30
2019-03-24T16:30:56.279Z,17.10
2019-03-24T16:33:26.706Z,17.00
2019-03-24T16:35:57.233Z,16.90
2019-03-24T16:38:27.664Z,16.90
2019-03-24T16:40:58.204Z,16.80
2019-03-24T16:43:28.736Z,16.80
2019-03-24T16:45:59.179Z,16.50
2019-03-24T16:48:36.790Z,16.50
2019-03-24T16:51:02.596Z,16.50
2019-03-24T16:53:32.987Z,16.60
2019-03-24T16:56:03.951Z,16.50
2019-03-24T16:58:34.452Z,16.40
2019-03-24T17:01:05.042Z,16.20
2019-03-24T17:03:35.459Z,16.30
2019-03-24T17:06:06.083Z,16.30
2019-03-24T17:08:36.670Z,16.20
2019-03-24T17:11:07.155Z,16.10
2019-03-24T17:13:38.945Z,16.10
2019-03-24T17:16:09.897Z,16.30
2019-03-24T17:18:40.691Z,16.20
2019-03-24T17:21:11.571Z,16.20
2019-03-24T17:23:43.327Z,16.30
2019-03-24T17:26:14.698Z,16.10
2019-03-24T17:28:46.980Z,15.90
2019-03-24T17:31:17.887Z,15.80
2019-03-24T17:33:48.475Z,15.60
2019-03-24T17:36:21.434Z,15.60
2019-03-24T17:38:52.143Z,15.50
2019-03-24T17:41:23.155Z,15.50
2019-03-24T17:44:02.886Z,15.30
2019-03-24T17:46:26.207Z,15.10
2019-03-24T17:48:57.052Z,15.10
2019-03-24T17:51:27.967Z,14.70
2019-03-24T17:53:58.911Z,14.40
2019-03-24T17:56:29.840Z,14.50
2019-03-24T17:59:00.696Z,14.70
2019-03-24T18:01:31.504Z,14.40
2019-03-24T18:04:02.552Z,14.40
2019-03-24T18:06:33.506Z,14.30
2019-03-24T18:09:06.073Z,14.20
2019-03-24T18:11:36.959Z,14.10
2019-03-24T18:14:07.643Z,14.00
2019-03-24T18:16:38.529Z,14.00
2019-03-24T18:19:09.408Z,14.00
2019-03-24T18:21:40.146Z,14.00
2019-03-24T18:24:10.876Z,14.00
2019-03-24T18:26:41.576Z,14.00
2019-03-24T18:29:13.575Z,14.10
2019-03-24T18:31:44.415Z,14.30
2019-03-24T18:34:15.288Z,14.20
2019-03-24T18:36:46.050Z,14.10
2019-03-24T18:39:16.921Z,14.20
2019-03-24T18:41:47.608Z,14.20
2019-03-24T18:44:18.657Z,14.10
2019-03-24T18:46:49.324Z,14.10
2019-03-24T18:49:20.983Z,14.10
2019-03-24T18:51:51.820Z,14.20
2019-03-24T18:54:22.550Z,14.30
2019-03-24T18:56:53.448Z,14.30
2019-03-24T18:59:24.285Z,14.20
2019-03-24T19:01:54.911Z,14.20
2019-03-24T19:04:25.857Z,14.20
2019-03-24T19:06:56.590Z,14.30
2019-03-24T19:09:27.465Z,14.10
2019-03-24T19:11:58.200Z,13.90
2019-03-24T19:14:28.934Z,13.90
2019-03-24T19:16:59.534Z,13.90
2019-03-24T19:19:30.486Z,13.80
2019-03-24T19:22:01.303Z,13.90
2019-03-24T19:24:32.888Z,13.70
2019-03-24T19:27:03.533Z,13.70
2019-03-24T19:29:34.207Z,13.40
2019-03-24T19:32:06.379Z,13.40
2019-03-24T19:34:37.370Z,13.20
2019-03-24T19:37:08.304Z,13.30
2019-03-24T19:39:39.141Z,13.50
2019-03-24T19:42:09.814Z,13.70
2019-03-24T19:44:40.719Z,13.70
2019-03-24T19:47:11.445Z,13.80
2019-03-24T19:49:42.345Z,13.40
2019-03-24T19:52:13.515Z,13.20
2019-03-24T19:54:44.161Z,13.20
2019-03-24T19:57:15.151Z,13.10
2019-03-24T19:59:45.970Z,13.00
2019-03-24T20:02:16.668Z,13.00
2019-03-24T20:04:47.379Z,13.20
2019-03-24T20:07:17.989Z,13.10
2019-03-24T20:09:48.540Z,13.00
2019-03-24T20:12:37.667Z,12.90
2019-03-24T20:15:08.930Z,13.20
2019-03-24T20:17:39.815Z,12.90
2019-03-24T20:20:10.757Z,13.00
2019-03-24T20:22:41.463Z,12.90
2019-03-24T20:25:12.283Z,13.00
2019-03-24T20:27:43.031Z,12.80
2019-03-24T20:30:14.151Z,12.60
2019-03-24T20:32:44.829Z,12.40
2019-03-24T20:35:15.727Z,12.30
2019-03-24T20:37:46.603Z,12.10
2019-03-24T20:40:17.655Z,12.00
2019-03-24T20:42:48.483Z,12.00
2019-03-24T20:45:19.192Z,11.90
2019-03-24T20:47:50.159Z,11.80
2019-03-24T20:50:20.894Z,11.80
2019-03-24T20:53:03.173Z,11.80
2019-03-24T20:55:24.005Z,12.00
2019-03-24T20:57:54.840Z,12.10
2019-03-24T21:00:35.245Z,11.90
2019-03-24T21:03:07.511Z,11.70
2019-03-24T21:05:38.860Z,11.70
2019-03-24T21:08:09.869Z,11.80
2019-03-24T21:10:40.949Z,11.80
2019-03-24T21:13:12.651Z,11.90
2019-03-24T21:15:43.489Z,12.10
2019-03-24T21:18:14.735Z,12.10
2019-03-24T21:20:45.980Z,12.00
2019-03-24T21:23:16.849Z,12.00
2019-03-24T21:25:47.792Z,12.00
2019-03-24T21:28:19.726Z,12.00
2019-03-24T21:30:50.428Z,12.10
2019-03-24T21:33:21.086Z,11.90
2019-03-24T21:35:51.952Z,11.70
2019-03-24T21:38:22.451Z,11.40
2019-03-24T21:40:52.876Z,11.70
2019-03-24T21:43:23.308Z,12.00
2019-03-24T21:45:54.071Z,12.20
2019-03-24T21:48:24.930Z,12.10
2019-03-24T21:50:55.619Z,12.00
2019-03-24T21:53:26.448Z,11.50
2019-03-24T21:55:57.192Z,11.50
2019-03-24T21:58:28.144Z,11.50
2019-03-24T22:00:59.124Z,11.50
2019-03-24T22:03:29.895Z,11.40
2019-03-24T22:06:00.828Z,11.40
2019-03-24T22:08:32.689Z,11.30
2019-03-24T22:11:03.875Z,11.20
2019-03-24T22:13:34.623Z,11.10
2019-03-24T22:16:05.813Z,10.90
2019-03-24T22:18:36.552Z,10.90
2019-03-24T22:21:07.443Z,10.80
2019-03-24T22:23:38.345Z,10.70
2019-03-24T22:26:09.284Z,10.60
2019-03-24T22:28:40.071Z,10.70
2019-03-24T22:31:10.745Z,10.60
2019-03-24T22:33:41.668Z,10.50
2019-03-24T22:36:12.507Z,10.40
2019-03-24T22:38:44.343Z,10.40
2019-03-24T22:41:15.175Z,10.20
2019-03-24T22:43:45.807Z,10.10
2019-03-24T22:46:16.599Z,10.00
2019-03-24T22:48:47.607Z,10.20
2019-03-24T22:51:18.546Z,10.30
2019-03-24T22:53:49.278Z,10.10
2019-03-24T22:56:20.127Z,9.90
2019-03-24T22:58:51.038Z,9.90
2019-03-24T23:01:22.007Z,9.50
2019-03-24T23:03:53.013Z,9.30
2019-03-24T23:06:23.881Z,9.30
2019-03-24T23:08:54.824Z,9.30
2019-03-24T23:11:25.561Z,9.30
2019-03-24T23:13:56.587Z,9.40
2019-03-24T23:16:34.216Z,9.40
2019-03-24T23:19:05.158Z,9.50
2019-03-24T23:21:36.086Z,9.60
2019-03-24T23:24:15.390Z,9.50
2019-03-24T23:26:39.818Z,9.50
2019-03-24T23:29:11.753Z,9.40
2019-03-24T23:31:42.583Z,9.30
2019-03-24T23:34:13.344Z,9.30
2019-03-24T23:36:44.252Z,9.30
2019-03-24T23:39:15.398Z,9.20
2019-03-24T23:41:46.440Z,9.00
2019-03-24T23:44:17.251Z,8.90
2019-03-24T23:46:47.880Z,9.00
2019-03-24T23:49:18.871Z,9.10
2019-03-24T23:51:49.643Z,9.00
2019-03-24T23:54:27.094Z,9.10
2019-03-24T23:56:53.072Z,9.10
2019-03-24T23:59:23.932Z,9.10
